Gibbonsville, ID

3:33 PM MDT on September 16, 2014 (GMT -0600)
RAWS KRILEY CREEK ID US | Change Station
CLOSE
Current Station
Personal Weather Station
Location: North Fork, ID
Elevation: 5200 ft
Nearby Weather Stations

Elev 5200 ft 45.36 °N, 113.90 °W | Updated 42 minutes ago

Partly Cloudy
Partly Cloudy
68 °F
Feels Like 68 °F
N
0
Wind Variable Wind from North
Gusts 11.0 mph

Today
High -- | Low -- °F
--% Chance of Precip.
Yesterday
High -- | Low -- °F
Precip. -- in
7:15 AM 7:44 PM
Last Quarter, 42% visible
Pressure 30.03 in
Visibility 10.0 miles
Clouds Clear
Dew Point 42 °F
Humidity 39%
Rainfall 0.00 in
Snow Depth 0 in , 0 in , 0 in
UV 6 out of 12
Pollen 5.90 out of 12
Air Quality Not available.
Flu Activity Not available.
METAR KSMN 162115Z AUTO 00000KT 10SM CLR 21/04 A3003 RMK AO1

More Conditions Fewer Conditions

Pressure 30.03 in
Visibility 10.0 miles
Clouds Clear
Dew Point 42 °F
Humidity 39%
Rainfall 0.00 in
Snow Depth 0 in , 0 in , 0 in
UV 6 out of 12
Pollen 5.90 out of 12
Air Quality Not available.
Flu Activity Not available.
METAR KSMN 162115Z AUTO 00000KT 10SM CLR 21/04 A3003 RMK AO1

More Conditions Fewer Conditions

10-Day Weather Forecast

Almanac

Astronomy

Sep. 16, 2014 Rise Set
Actual Time 7:15 AM MDT 7:44 PM MDT
Civil Twilight 6:45 AM MDT 8:14 PM MDT
Nautical Twilight 6:10 AM MDT 8:49 PM MDT
Astronomical Twilight 5:34 AM MDT 9:25 PM MDT
Moon 12:16 AM MDT 3:24 PM MDT
Length of Visible Light 13h 28m
Length of Day
12h 29m
Tomorrow will be 3m 9s shorter.
Last Quarter, 42% of the Moon is Illuminated
Today
Last Quarter
Sep 24
New
Oct 1
First Quarter
Oct 8
Full
Oct 15
Last Quarter

Today's Extremes

State Highs State Lows

Community

WunderPhotos

Upload Photos

1,753,895 photos uploaded!

Nearby

Snow Depth

Station Depth Elevation
Oxford Spring 0 in 6740 ft
Moscow Mountain 0 in 4700 ft
Emigrant Summit 0 in 7390 ft
Franklin Basin 0 in 8170 ft
Myrtle Creek 0 in 3520 ft

Earthquake Activity

City Distance Mag. Time & Date
Challis, Idaho 66 miles 3.0 12:58 PM MDT
2014-09-14
Minimum magnitude displayed is 2.5.

Coastal Water Temperatures

Place Temperature
No Stations Reporting

Nearby Weather Stations